createdAt,value
2017-11-04T00:00:22.763Z,0
2017-11-04T00:00:48.905Z,0
2017-11-04T00:01:15.054Z,0
2017-11-04T00:01:41.193Z,0
2017-11-04T00:02:07.371Z,0
2017-11-04T00:02:33.521Z,0
2017-11-04T00:02:59.659Z,0
2017-11-04T00:03:25.798Z,0
2017-11-04T00:03:51.948Z,0
2017-11-04T00:04:18.094Z,0
2017-11-04T00:04:44.242Z,0
2017-11-04T00:05:10.392Z,0
2017-11-04T00:05:36.540Z,0
2017-11-04T00:06:02.676Z,0
2017-11-04T00:06:28.821Z,0
2017-11-04T00:06:54.967Z,0
2017-11-04T00:07:21.113Z,0
2017-11-04T00:07:47.262Z,0
2017-11-04T00:08:13.410Z,0
2017-11-04T02:26:29.324Z,0
2017-11-04T02:26:55.457Z,0
2017-11-04T02:27:21.922Z,0
2017-11-04T02:27:48.049Z,0
2017-11-04T02:28:14.168Z,0
2017-11-04T02:28:40.286Z,0
2017-11-04T02:29:06.403Z,0
2017-11-04T02:29:32.523Z,0
2017-11-04T02:29:58.645Z,0
2017-11-04T02:30:24.762Z,0
2017-11-04T02:30:50.876Z,0
2017-11-04T02:31:16.998Z,0
2017-11-04T02:31:43.113Z,0
2017-11-04T02:32:09.243Z,0
2017-11-04T02:32:35.353Z,0
2017-11-04T02:33:01.485Z,0
2017-11-04T02:33:27.594Z,0
2017-11-04T02:33:53.715Z,0
2017-11-04T02:34:19.837Z,0
2017-11-04T02:34:45.955Z,0
2017-11-04T02:35:12.075Z,0
2017-11-04T02:35:38.192Z,0
2017-11-04T02:36:04.313Z,0
2017-11-04T02:36:30.433Z,0
2017-11-04T02:36:56.553Z,0
2017-11-04T02:37:22.677Z,0
2017-11-04T02:37:48.798Z,0
2017-11-04T02:38:14.916Z,0
2017-11-04T02:38:41.044Z,0
2017-11-04T02:39:07.165Z,0
2017-11-04T02:39:33.285Z,0
2017-11-04T02:39:59.393Z,0
2017-11-04T02:40:25.512Z,0
2017-11-04T02:40:51.653Z,0
2017-11-04T02:41:17.772Z,0
2017-11-04T02:41:43.898Z,0
2017-11-04T02:42:10.012Z,0
2017-11-04T02:42:36.130Z,0
2017-11-04T02:43:02.249Z,0
2017-11-04T02:43:28.371Z,0
2017-11-04T02:43:54.781Z,0
2017-11-04T02:44:20.896Z,0
2017-11-04T02:44:47.020Z,0
2017-11-04T02:45:13.136Z,0
2017-11-04T02:45:39.254Z,0
2017-11-04T02:46:05.378Z,0
2017-11-04T02:46:31.494Z,0
2017-11-04T02:46:57.636Z,0
2017-11-04T02:47:23.758Z,0
2017-11-04T02:47:49.874Z,0
2017-11-04T02:48:16.003Z,0
2017-11-04T02:48:42.107Z,0
2017-11-04T02:49:08.228Z,0
2017-11-04T02:49:34.343Z,0
2017-11-04T02:50:00.466Z,0
2017-11-04T02:50:26.602Z,0
2017-11-04T02:50:52.722Z,0
2017-11-04T02:51:18.849Z,0
2017-11-04T02:51:44.974Z,0
2017-11-04T02:52:11.097Z,0
2017-11-04T02:52:37.214Z,0
2017-11-04T02:53:03.331Z,0
2017-11-04T02:53:29.469Z,0
2017-11-04T02:53:55.585Z,0
2017-11-04T02:54:21.714Z,0
2017-11-04T02:54:47.828Z,0
2017-11-04T02:55:13.952Z,0
2017-11-04T02:55:40.082Z,0
2017-11-04T02:56:06.202Z,0
2017-11-04T02:56:32.329Z,0
2017-11-04T02:56:58.450Z,0
2017-11-04T02:57:24.572Z,0
2017-11-04T02:57:50.698Z,0
2017-11-04T02:58:16.834Z,0
2017-11-04T02:58:42.980Z,0
2017-11-04T02:59:09.097Z,0
2017-11-04T02:59:35.215Z,0
2017-11-04T03:00:01.339Z,0
2017-11-04T03:00:27.455Z,0
2017-11-04T03:00:53.574Z,0
2017-11-04T03:01:19.702Z,0
2017-11-04T03:01:45.840Z,0
2017-11-04T03:02:12.243Z,0
2017-11-04T03:02:38.970Z,0
2017-11-04T03:03:05.089Z,0
2017-11-04T03:03:31.207Z,0
2017-11-04T03:03:57.330Z,0
2017-11-04T03:04:23.444Z,0
2017-11-04T03:04:49.563Z,0
2017-11-04T03:05:15.687Z,0
2017-11-04T03:05:41.802Z,0
2017-11-04T03:06:07.924Z,0
2017-11-04T03:06:34.040Z,0
2017-11-04T03:07:00.160Z,0
2017-11-04T03:07:26.285Z,0
2017-11-04T03:07:52.396Z,0
2017-11-04T03:08:18.514Z,0
2017-11-04T03:08:44.632Z,0
2017-11-04T03:09:10.749Z,0
2017-11-04T03:09:36.872Z,0
2017-11-04T03:10:02.994Z,0
2017-11-04T03:10:29.112Z,0
2017-11-04T03:10:55.230Z,0
2017-11-04T03:11:21.352Z,0
2017-11-04T03:11:47.477Z,0
2017-11-04T03:12:13.600Z,0
2017-11-04T03:12:39.721Z,0
2017-11-04T03:13:05.842Z,0
2017-11-04T03:13:31.957Z,0
2017-11-04T03:13:58.080Z,0
2017-11-04T03:14:24.193Z,0
2017-11-04T03:14:50.316Z,0
2017-11-04T03:15:16.438Z,0
2017-11-04T03:15:42.559Z,0
2017-11-04T03:16:08.668Z,0
2017-11-04T03:16:34.787Z,0
2017-11-04T03:17:00.910Z,0
2017-11-04T03:17:28.959Z,0
2017-11-04T03:17:55.017Z,0
2017-11-04T03:18:21.121Z,0
2017-11-04T03:18:47.244Z,0
2017-11-04T03:19:13.360Z,0
2017-11-04T03:19:39.482Z,0
2017-11-04T03:20:05.597Z,0
2017-11-04T03:20:31.715Z,0
2017-11-04T03:20:57.832Z,0
2017-11-04T03:21:23.949Z,0
2017-11-04T03:21:50.081Z,0
2017-11-04T03:22:16.195Z,0
2017-11-04T03:22:42.318Z,0
2017-11-04T03:23:08.444Z,0
2017-11-04T03:23:34.558Z,0
2017-11-04T03:24:00.676Z,0
2017-11-04T03:24:26.795Z,0
2017-11-04T03:24:52.915Z,0
2017-11-04T03:25:19.038Z,0
2017-11-04T03:25:45.159Z,0
2017-11-04T03:26:11.275Z,0
2017-11-04T03:26:37.399Z,0
2017-11-04T03:27:03.519Z,0
2017-11-04T03:27:29.636Z,0
2017-11-04T03:27:55.754Z,0
2017-11-04T03:28:21.876Z,0
2017-11-04T03:28:48.003Z,0
2017-11-04T03:29:14.132Z,0
2017-11-04T03:29:40.256Z,0
2017-11-04T03:30:06.377Z,0
2017-11-04T03:30:32.495Z,0
2017-11-04T03:30:58.608Z,0
2017-11-04T03:31:24.733Z,0
2017-11-04T03:31:50.852Z,0
2017-11-04T03:32:16.968Z,0
2017-11-04T03:32:43.089Z,0
2017-11-04T03:33:09.203Z,0
2017-11-04T03:33:35.330Z,0
2017-11-04T03:34:01.446Z,0
2017-11-04T03:34:27.581Z,0
2017-11-04T03:34:53.703Z,0
2017-11-04T03:35:19.817Z,0
2017-11-04T03:35:45.944Z,0
2017-11-04T03:36:12.065Z,0
2017-11-04T03:36:38.432Z,0
2017-11-04T03:37:04.735Z,0
2017-11-04T03:37:30.848Z,0
2017-11-04T03:37:56.966Z,0
2017-11-04T03:38:23.120Z,0
2017-11-04T03:38:49.237Z,0
2017-11-04T03:39:15.351Z,0
2017-11-04T03:39:41.477Z,0
2017-11-04T03:40:07.595Z,0
2017-11-04T03:40:33.728Z,0
2017-11-04T03:40:59.843Z,0
2017-11-04T03:41:25.962Z,0
2017-11-04T03:41:52.083Z,0
2017-11-04T03:42:18.200Z,0
2017-11-04T03:42:44.332Z,0
2017-11-04T03:43:10.478Z,0
2017-11-04T03:43:36.591Z,0
2017-11-04T03:44:02.710Z,0
2017-11-04T03:44:28.830Z,0
2017-11-04T03:44:54.944Z,0
2017-11-04T03:45:21.084Z,0
2017-11-04T03:45:47.207Z,0
2017-11-04T03:46:13.320Z,0
2017-11-04T03:46:40.762Z,0
2017-11-04T03:47:06.895Z,0
2017-11-04T03:47:32.996Z,0
2017-11-04T03:47:59.141Z,0
2017-11-04T03:48:25.262Z,0
2017-11-04T03:48:51.380Z,0
2017-11-04T03:49:17.501Z,0
2017-11-04T03:49:43.634Z,0
2017-11-04T03:50:09.758Z,0
2017-11-04T03:50:35.877Z,0
2017-11-04T03:51:01.993Z,0
2017-11-04T03:51:28.134Z,0
2017-11-04T03:51:54.260Z,0
2017-11-04T03:52:20.380Z,0
2017-11-04T03:52:46.493Z,0
2017-11-04T03:53:12.617Z,0
2017-11-04T03:53:38.740Z,0
2017-11-04T03:54:04.854Z,0
2017-11-04T03:54:30.978Z,0
2017-11-04T03:54:57.093Z,0
2017-11-04T03:55:23.216Z,0
2017-11-04T03:55:49.334Z,0
2017-11-04T03:56:15.455Z,0
2017-11-04T03:56:41.570Z,0
2017-11-04T03:57:07.705Z,0
2017-11-04T03:57:33.852Z,0
2017-11-04T03:57:59.957Z,0
2017-11-04T03:58:26.073Z,0
2017-11-04T03:58:52.188Z,0
2017-11-04T03:59:18.312Z,0
2017-11-04T03:59:44.435Z,0
2017-11-04T04:00:10.551Z,0
2017-11-04T04:00:36.688Z,0
2017-11-04T04:01:02.814Z,0
2017-11-04T04:01:28.932Z,0
2017-11-04T04:01:55.047Z,0
2017-11-04T04:02:21.164Z,0
2017-11-04T04:02:47.289Z,0
2017-11-04T04:03:13.410Z,0
2017-11-04T04:03:39.540Z,0
2017-11-04T04:04:05.653Z,0
2017-11-04T04:04:31.799Z,0
2017-11-04T04:04:57.911Z,0
2017-11-04T04:05:24.034Z,0
2017-11-04T04:05:50.166Z,0
2017-11-04T04:06:16.275Z,0
2017-11-04T04:06:42.397Z,0
2017-11-04T04:07:08.511Z,0
2017-11-04T04:07:34.634Z,0
2017-11-04T04:08:00.745Z,0
2017-11-04T04:08:26.866Z,0
2017-11-04T04:08:53.369Z,0
2017-11-04T04:09:19.480Z,0
2017-11-04T04:09:45.600Z,0
2017-11-04T04:10:11.726Z,0
2017-11-04T04:10:37.848Z,0
2017-11-04T04:11:04.034Z,0
2017-11-04T04:11:30.152Z,0
2017-11-04T04:11:56.293Z,0
2017-11-04T04:12:22.412Z,0
2017-11-04T04:12:48.525Z,0
2017-11-04T04:13:14.646Z,0
2017-11-04T04:13:40.773Z,0
2017-11-04T04:14:06.886Z,0
2017-11-04T04:14:33.008Z,0
2017-11-04T04:14:59.104Z,0
2017-11-04T04:15:25.229Z,0
2017-11-04T04:15:51.348Z,0
2017-11-04T04:16:17.470Z,0
2017-11-04T04:16:43.587Z,0
2017-11-04T04:17:09.712Z,0
2017-11-04T04:17:35.843Z,0
2017-11-04T04:18:01.954Z,0
2017-11-04T04:18:28.079Z,0
2017-11-04T04:18:54.193Z,0
2017-11-04T04:19:20.316Z,0
2017-11-04T04:19:46.443Z,0
2017-11-04T04:20:12.726Z,0
2017-11-04T04:20:38.848Z,0
2017-11-04T04:21:04.962Z,0
2017-11-04T04:21:31.079Z,0
2017-11-04T04:21:57.204Z,0
2017-11-04T04:22:23.319Z,0
2017-11-04T04:22:49.437Z,0
2017-11-04T04:23:15.562Z,0
2017-11-04T04:23:41.698Z,0
2017-11-04T04:24:07.809Z,0
2017-11-04T04:24:33.936Z,0
2017-11-04T04:25:00.050Z,0
2017-11-04T04:25:26.162Z,0
2017-11-04T04:25:52.284Z,0
2017-11-04T04:26:18.399Z,0
2017-11-04T04:26:44.517Z,0
2017-11-04T04:27:10.643Z,0
2017-11-04T04:27:36.809Z,0
2017-11-04T04:28:02.940Z,0
2017-11-04T04:28:29.063Z,0
2017-11-04T04:28:55.177Z,0
2017-11-04T04:29:21.300Z,0
2017-11-04T04:29:47.415Z,0
2017-11-04T04:30:13.542Z,0
2017-11-04T04:30:39.666Z,0
2017-11-04T04:31:05.787Z,0
2017-11-04T04:31:31.927Z,0
2017-11-04T04:31:58.045Z,0
2017-11-04T04:32:24.167Z,0
2017-11-04T04:32:50.283Z,0
2017-11-04T04:33:16.402Z,0
2017-11-04T04:33:42.531Z,0
2017-11-04T04:34:08.688Z,0
2017-11-04T04:34:34.809Z,0
2017-11-04T04:35:00.926Z,0
2017-11-04T04:35:27.041Z,0
2017-11-04T04:35:53.170Z,0
2017-11-04T04:36:19.290Z,0
2017-11-04T04:36:45.401Z,0
2017-11-04T04:37:11.521Z,0
2017-11-04T04:37:37.644Z,0
2017-11-04T04:38:03.766Z,0
2017-11-04T04:38:29.888Z,0
2017-11-04T04:38:55.997Z,0
2017-11-04T04:39:22.119Z,0
2017-11-04T04:39:48.238Z,0
2017-11-04T04:40:14.347Z,0
2017-11-04T04:40:40.482Z,0
2017-11-04T04:41:06.608Z,0
2017-11-04T04:41:32.752Z,0
2017-11-04T04:41:58.874Z,0
2017-11-04T04:42:24.991Z,0
2017-11-04T04:42:51.109Z,0
2017-11-04T04:43:17.230Z,0
2017-11-04T04:43:43.351Z,0
2017-11-04T04:44:09.463Z,0
2017-11-04T04:44:35.585Z,0
2017-11-04T04:45:01.706Z,0
2017-11-04T04:45:27.820Z,0
2017-11-04T04:45:53.937Z,0
2017-11-04T04:46:20.063Z,0
2017-11-04T04:46:46.198Z,0
2017-11-04T04:47:12.326Z,0
2017-11-04T04:47:38.437Z,0
2017-11-04T04:48:04.558Z,0
2017-11-04T04:48:30.673Z,0
2017-11-04T04:48:56.796Z,0
2017-11-04T04:49:22.913Z,0
2017-11-04T04:49:49.036Z,0
2017-11-04T04:50:15.158Z,0
2017-11-04T04:50:41.270Z,0
2017-11-04T04:51:07.388Z,0
2017-11-04T04:51:33.497Z,0
2017-11-04T04:51:59.627Z,0
2017-11-04T04:52:25.744Z,0
2017-11-04T04:52:51.868Z,0
2017-11-04T04:53:17.978Z,0
2017-11-04T04:53:44.092Z,0
2017-11-04T04:54:10.213Z,0
2017-11-04T04:54:36.343Z,0
2017-11-04T04:55:02.459Z,0
2017-11-04T04:55:28.605Z,0
2017-11-04T04:55:54.719Z,0
2017-11-04T04:56:20.836Z,0
2017-11-04T04:56:46.961Z,0
2017-11-04T04:57:13.076Z,0
2017-11-04T04:57:39.195Z,0
2017-11-04T04:58:05.309Z,0
2017-11-04T04:58:31.425Z,0
2017-11-04T04:58:57.547Z,0
2017-11-04T04:59:23.662Z,0
2017-11-04T04:59:49.806Z,0
2017-11-04T05:00:15.934Z,0
2017-11-04T05:00:42.055Z,0
2017-11-04T05:01:08.183Z,0
2017-11-04T05:01:34.288Z,0
2017-11-04T05:02:00.410Z,0
2017-11-04T05:02:26.530Z,0
2017-11-04T05:02:52.651Z,0
2017-11-04T05:03:18.766Z,0
2017-11-04T05:03:44.890Z,0
2017-11-04T05:04:11.030Z,0
2017-11-04T05:04:37.148Z,0
2017-11-04T05:05:03.269Z,0
2017-11-04T05:05:29.388Z,0
2017-11-04T05:05:55.508Z,0
2017-11-04T05:06:21.631Z,0
2017-11-04T05:06:47.749Z,0
2017-11-04T05:07:13.884Z,0
2017-11-04T05:07:40.003Z,0
2017-11-04T05:08:06.178Z,0
2017-11-04T05:08:32.291Z,0
2017-11-04T05:08:58.417Z,0
2017-11-04T05:09:24.536Z,0
2017-11-04T05:09:50.654Z,0
2017-11-04T05:10:16.770Z,0
2017-11-04T05:10:42.916Z,0
2017-11-04T05:11:09.035Z,0
2017-11-04T05:11:35.149Z,0
2017-11-04T05:12:01.284Z,0
2017-11-04T05:12:27.405Z,0
2017-11-04T05:12:53.531Z,0
2017-11-04T05:13:19.648Z,0
2017-11-04T05:13:45.771Z,0
2017-11-04T05:14:11.898Z,0
2017-11-04T05:14:38.016Z,0
2017-11-04T05:15:04.131Z,0
2017-11-04T05:15:30.253Z,0
2017-11-04T05:15:56.370Z,0
2017-11-04T05:16:22.492Z,0
2017-11-04T05:16:48.612Z,0
2017-11-04T05:17:14.720Z,0
2017-11-04T05:17:40.841Z,0
2017-11-04T05:18:06.953Z,0
2017-11-04T05:18:33.069Z,0
2017-11-04T05:18:59.200Z,0
2017-11-04T05:19:25.313Z,0
2017-11-04T05:19:51.437Z,0
2017-11-04T05:20:17.555Z,0
2017-11-04T05:20:43.688Z,0
2017-11-04T05:21:09.813Z,0
2017-11-04T05:21:35.935Z,0
2017-11-04T05:22:02.055Z,0
2017-11-04T05:22:28.164Z,0
2017-11-04T05:22:54.288Z,0
2017-11-04T05:23:20.402Z,0
2017-11-04T05:23:46.517Z,0
2017-11-04T05:24:12.633Z,0
2017-11-04T05:24:38.758Z,0
2017-11-04T05:25:04.880Z,0
2017-11-04T05:25:30.993Z,0
2017-11-04T05:25:57.124Z,0
2017-11-04T05:26:23.234Z,0
2017-11-04T05:26:49.356Z,0
2017-11-04T05:27:15.490Z,0
2017-11-04T05:27:41.606Z,0
2017-11-04T05:28:07.730Z,0
2017-11-04T05:28:33.849Z,0
2017-11-04T05:28:59.962Z,0
2017-11-04T05:29:26.079Z,0
2017-11-04T05:29:52.205Z,0
2017-11-04T05:30:18.322Z,0
2017-11-04T05:30:44.444Z,0
2017-11-04T05:31:10.563Z,0
2017-11-04T05:31:36.677Z,0
2017-11-04T05:32:02.802Z,0
2017-11-04T05:32:28.935Z,0
2017-11-04T05:32:55.051Z,0
2017-11-04T05:33:21.175Z,0
2017-11-04T05:33:47.300Z,0
2017-11-04T05:34:13.422Z,0
2017-11-04T05:34:39.533Z,0
2017-11-04T05:35:05.657Z,0
2017-11-04T05:35:31.774Z,0
2017-11-04T05:35:57.896Z,0
2017-11-04T05:36:24.012Z,0
2017-11-04T05:36:50.126Z,0
2017-11-04T05:37:16.243Z,0
2017-11-04T05:37:42.367Z,0
2017-11-04T05:38:08.504Z,0
2017-11-04T05:38:34.600Z,0
2017-11-04T05:39:00.720Z,0
2017-11-04T05:39:26.841Z,0
2017-11-04T05:39:52.965Z,0
2017-11-04T05:40:19.082Z,0
2017-11-04T05:40:45.201Z,0
2017-11-04T05:41:11.325Z,0
2017-11-04T05:41:37.455Z,0
2017-11-04T05:42:03.574Z,0
2017-11-04T05:42:29.699Z,0
2017-11-04T05:42:55.815Z,0
2017-11-04T05:43:21.923Z,0
2017-11-04T05:43:48.052Z,0
2017-11-04T05:44:14.187Z,0
2017-11-04T05:44:40.306Z,0
2017-11-04T05:45:06.429Z,0
2017-11-04T05:45:32.545Z,0
2017-11-04T05:45:58.662Z,0
2017-11-04T05:46:24.786Z,0
2017-11-04T05:46:50.899Z,0
2017-11-04T05:47:17.041Z,0
2017-11-04T05:47:43.162Z,0
2017-11-04T05:48:09.278Z,0
2017-11-04T05:48:35.394Z,0
2017-11-04T05:49:01.519Z,0
2017-11-04T05:49:27.633Z,0
2017-11-04T05:49:53.760Z,0
2017-11-04T05:50:19.874Z,0
2017-11-04T05:50:45.994Z,0
2017-11-04T05:51:12.119Z,0
2017-11-04T05:51:38.234Z,0
2017-11-04T05:52:04.353Z,0
2017-11-04T05:52:30.500Z,0
2017-11-04T05:52:56.623Z,0
2017-11-04T05:53:22.736Z,0
2017-11-04T05:53:48.854Z,0
2017-11-04T05:54:14.975Z,0
2017-11-04T05:54:41.089Z,0
2017-11-04T05:55:07.214Z,0
2017-11-04T05:55:33.335Z,0
2017-11-04T05:55:59.453Z,0
2017-11-04T05:56:25.579Z,0
2017-11-04T05:56:51.693Z,0
2017-11-04T05:57:17.811Z,0
2017-11-04T05:57:43.930Z,0
2017-11-04T05:58:10.043Z,0
2017-11-04T05:58:36.191Z,0
2017-11-04T05:59:02.313Z,0
2017-11-04T05:59:28.428Z,0
2017-11-04T05:59:54.550Z,0
2017-11-04T06:00:20.670Z,0
2017-11-04T06:00:46.787Z,0
2017-11-04T06:01:12.916Z,0
2017-11-04T06:01:39.035Z,0
2017-11-04T06:02:05.150Z,0
2017-11-04T06:02:31.265Z,0
2017-11-04T06:02:57.388Z,0
2017-11-04T06:03:23.501Z,0
2017-11-04T06:03:49.626Z,0
2017-11-04T06:04:15.741Z,0
2017-11-04T06:04:41.883Z,0
2017-11-04T06:05:08.005Z,0
2017-11-04T06:05:34.133Z,0
2017-11-04T06:06:00.249Z,0
2017-11-04T06:06:26.378Z,0
2017-11-04T06:06:52.486Z,0
2017-11-04T06:07:18.604Z,0
2017-11-04T06:07:44.729Z,0
2017-11-04T06:08:10.840Z,0
2017-11-04T06:08:36.962Z,0
2017-11-04T06:09:03.084Z,0
2017-11-04T06:09:29.207Z,0
2017-11-04T06:09:55.325Z,0
2017-11-04T06:10:21.464Z,0
2017-11-04T06:10:47.581Z,0
2017-11-04T06:11:13.704Z,0
2017-11-04T06:11:39.822Z,0
2017-11-04T06:12:05.938Z,0
2017-11-04T06:12:32.079Z,0
2017-11-04T06:12:58.194Z,0
2017-11-04T06:13:24.319Z,0
2017-11-04T06:13:50.437Z,0
2017-11-04T06:14:16.557Z,0
2017-11-04T06:14:42.672Z,0
2017-11-04T06:15:08.792Z,0
2017-11-04T06:15:34.910Z,0
2017-11-04T06:16:01.038Z,0
2017-11-04T06:16:27.154Z,0
2017-11-04T06:16:53.271Z,0
2017-11-04T06:17:19.393Z,0
2017-11-04T06:17:45.508Z,0
2017-11-04T06:18:11.657Z,0
2017-11-04T06:18:37.765Z,0
2017-11-04T06:19:03.881Z,5
2017-11-04T06:19:30.007Z,5
2017-11-04T06:19:56.117Z,5
2017-11-04T06:20:22.244Z,5
2017-11-04T06:20:48.361Z,5
2017-11-04T06:21:14.478Z,5
2017-11-04T06:21:40.582Z,5
2017-11-04T06:22:06.707Z,5
2017-11-04T06:22:32.830Z,5
2017-11-04T06:22:58.951Z,5
2017-11-04T06:23:25.075Z,5
2017-11-04T06:23:51.208Z,5
2017-11-04T06:24:17.328Z,5
2017-11-04T06:24:43.446Z,0
2017-11-04T06:25:09.564Z,5
2017-11-04T06:25:35.691Z,5
2017-11-04T06:26:01.815Z,5
2017-11-04T06:26:27.935Z,5
2017-11-04T06:26:54.053Z,5
2017-11-04T06:27:20.182Z,5
2017-11-04T06:27:46.317Z,5
2017-11-04T06:28:12.439Z,5
2017-11-04T06:28:38.549Z,5
2017-11-04T06:29:04.669Z,5
2017-11-04T06:29:30.786Z,5
2017-11-04T06:29:56.902Z,5
2017-11-04T06:30:23.026Z,5
2017-11-04T06:30:49.148Z,5
2017-11-04T06:31:15.266Z,5
2017-11-04T06:31:41.384Z,5
2017-11-04T06:32:07.499Z,5
2017-11-04T06:32:33.620Z,5
2017-11-04T06:32:59.740Z,5
2017-11-04T06:33:25.865Z,5
2017-11-04T06:33:51.979Z,5
2017-11-04T06:34:18.108Z,5
2017-11-04T06:34:44.228Z,5
2017-11-04T06:35:10.342Z,5
2017-11-04T06:35:36.457Z,10
2017-11-04T06:36:02.584Z,10
2017-11-04T06:36:28.703Z,10
2017-11-04T06:36:54.816Z,10
2017-11-04T06:37:20.935Z,10
2017-11-04T06:37:47.060Z,10
2017-11-04T06:38:13.183Z,10
2017-11-04T06:38:39.297Z,10
2017-11-04T06:39:05.414Z,10
2017-11-04T06:39:31.544Z,10
2017-11-04T06:39:57.659Z,10
2017-11-04T06:40:23.785Z,10
2017-11-04T06:40:49.910Z,15
2017-11-04T06:41:16.026Z,15
2017-11-04T06:41:42.151Z,15
2017-11-04T06:42:08.266Z,15
2017-11-04T06:42:34.386Z,15
2017-11-04T06:43:00.505Z,15
2017-11-04T06:43:26.621Z,15
2017-11-04T06:43:52.738Z,15
2017-11-04T06:44:18.860Z,20
2017-11-04T06:44:44.982Z,20
2017-11-04T06:45:11.101Z,20
2017-11-04T06:45:37.223Z,20
2017-11-04T06:46:03.341Z,20
2017-11-04T06:46:29.462Z,20
2017-11-04T06:46:55.585Z,20
2017-11-04T06:47:21.712Z,25
2017-11-04T06:47:47.829Z,25
2017-11-04T06:48:13.942Z,25
2017-11-04T06:48:40.059Z,25
2017-11-04T06:49:06.182Z,25
2017-11-04T06:49:32.301Z,25
2017-11-04T06:49:58.424Z,30
2017-11-04T06:50:24.567Z,30
2017-11-04T06:50:50.693Z,30
2017-11-04T06:51:16.813Z,30
2017-11-04T06:51:42.930Z,30
2017-11-04T06:52:09.049Z,30
2017-11-04T06:52:35.160Z,35
2017-11-04T06:53:01.282Z,35
2017-11-04T06:53:27.400Z,35
2017-11-04T06:53:53.514Z,35
2017-11-04T06:54:19.638Z,35
2017-11-04T06:54:45.761Z,40
2017-11-04T06:55:11.875Z,40
2017-11-04T06:55:37.996Z,40
2017-11-04T06:56:04.114Z,40
2017-11-04T06:56:30.233Z,45
2017-11-04T06:56:56.353Z,45
2017-11-04T06:57:22.470Z,45
2017-11-04T06:57:48.585Z,45
2017-11-04T06:58:14.714Z,45
2017-11-04T06:58:40.829Z,50
2017-11-04T06:59:06.947Z,50
2017-11-04T06:59:33.073Z,50
2017-11-04T06:59:59.194Z,50
2017-11-04T07:00:25.310Z,50
2017-11-04T07:00:51.427Z,55
2017-11-04T07:01:17.541Z,55
2017-11-04T07:01:43.664Z,55
2017-11-04T07:02:09.805Z,55
2017-11-04T07:02:35.924Z,60
2017-11-04T07:03:02.049Z,60
2017-11-04T07:03:28.173Z,60
2017-11-04T07:03:54.291Z,60
2017-11-04T07:04:20.405Z,60
2017-11-04T07:04:46.528Z,60
2017-11-04T07:05:12.651Z,60
2017-11-04T07:05:38.766Z,60
2017-11-04T07:06:04.882Z,65
2017-11-04T07:06:31.008Z,65
2017-11-04T07:06:57.120Z,65
2017-11-04T07:07:23.244Z,65
2017-11-04T07:07:49.369Z,70
2017-11-04T07:08:15.509Z,70
2017-11-04T07:08:41.642Z,70
2017-11-04T07:09:07.767Z,70
2017-11-04T07:09:33.885Z,75
2017-11-04T07:10:00.000Z,75
2017-11-04T07:10:26.122Z,75
2017-11-04T07:10:52.242Z,80
2017-11-04T07:11:18.357Z,80
2017-11-04T07:11:44.481Z,80
2017-11-04T07:12:10.596Z,80
2017-11-04T07:12:36.718Z,80
2017-11-04T07:13:02.842Z,85
2017-11-04T07:13:28.956Z,85
2017-11-04T07:13:55.086Z,85
2017-11-04T07:14:21.203Z,85
2017-11-04T07:14:47.317Z,85
2017-11-04T07:15:13.435Z,85
2017-11-04T07:15:39.556Z,85
2017-11-04T07:16:05.677Z,85
2017-11-04T07:16:31.802Z,85
2017-11-04T07:16:57.919Z,85
2017-11-04T07:17:24.041Z,85
2017-11-04T07:17:50.162Z,85
2017-11-04T07:18:16.273Z,90
2017-11-04T07:18:42.401Z,85
2017-11-04T07:19:08.516Z,85
2017-11-04T07:19:34.636Z,85
2017-11-04T07:20:00.753Z,85
2017-11-04T07:20:26.870Z,85
2017-11-04T07:20:52.986Z,85
2017-11-04T07:21:19.112Z,85
2017-11-04T07:21:45.234Z,85
2017-11-04T07:22:11.340Z,85
2017-11-04T07:22:37.462Z,90
2017-11-04T07:23:03.575Z,90
2017-11-04T07:23:29.702Z,95
2017-11-04T07:23:55.823Z,100
2017-11-04T07:24:21.940Z,105
2017-11-04T07:24:48.056Z,110
2017-11-04T07:25:14.179Z,110
2017-11-04T07:25:40.303Z,115
2017-11-04T07:26:06.425Z,120
2017-11-04T07:26:32.546Z,130
2017-11-04T07:26:58.666Z,135
2017-11-04T07:27:24.779Z,140
2017-11-04T07:27:50.902Z,145
2017-11-04T07:28:17.021Z,150
2017-11-04T07:28:43.143Z,155
2017-11-04T07:29:09.259Z,155
2017-11-04T07:29:35.385Z,155
2017-11-04T07:30:01.500Z,155
2017-11-04T07:30:27.623Z,155
2017-11-04T07:30:53.748Z,155
2017-11-04T07:31:19.864Z,155
2017-11-04T07:31:45.984Z,150
2017-11-04T07:32:12.102Z,150
2017-11-04T07:32:38.223Z,150
2017-11-04T07:33:04.335Z,150
2017-11-04T07:33:30.459Z,155
2017-11-04T07:33:56.576Z,155
2017-11-04T07:34:22.701Z,155
2017-11-04T07:34:48.825Z,155
2017-11-04T07:35:14.939Z,160
2017-11-04T07:35:41.064Z,165
2017-11-04T07:36:07.181Z,165
2017-11-04T07:36:33.303Z,170
2017-11-04T07:36:59.418Z,175
2017-11-04T07:37:25.555Z,175
2017-11-04T07:37:51.676Z,175
2017-11-04T07:38:17.794Z,180
2017-11-04T07:38:43.915Z,180
2017-11-04T07:39:10.039Z,185
2017-11-04T07:39:36.157Z,190
2017-11-04T07:40:02.290Z,200
2017-11-04T07:40:28.398Z,205
2017-11-04T07:40:54.515Z,210
2017-11-04T07:41:20.637Z,215
2017-11-04T07:41:46.758Z,220
2017-11-04T07:42:12.874Z,220
2017-11-04T07:42:39.010Z,220
2017-11-04T07:43:05.128Z,225
2017-11-04T07:43:31.246Z,235
2017-11-04T07:43:57.375Z,240
2017-11-04T07:44:23.492Z,245
2017-11-04T07:44:49.614Z,245
2017-11-04T07:45:15.734Z,245
2017-11-04T07:45:41.853Z,245
2017-11-04T07:46:07.970Z,245
2017-11-04T07:46:34.089Z,245
2017-11-04T07:47:00.212Z,245
2017-11-04T07:47:26.328Z,245
2017-11-04T07:47:52.448Z,245
2017-11-04T07:48:18.576Z,255
2017-11-04T07:48:44.690Z,265
2017-11-04T07:49:10.816Z,270
2017-11-04T07:49:36.941Z,275
2017-11-04T07:50:03.060Z,285
2017-11-04T07:50:29.178Z,295
2017-11-04T07:50:55.295Z,300
2017-11-04T07:51:21.420Z,300
2017-11-04T07:51:47.538Z,305
2017-11-04T07:52:13.653Z,310
2017-11-04T07:52:39.791Z,315
2017-11-04T07:53:05.908Z,320
2017-11-04T07:53:32.032Z,320
2017-11-04T07:53:58.154Z,325
2017-11-04T07:54:24.269Z,325
2017-11-04T07:54:50.394Z,320
2017-11-04T07:55:16.512Z,315
2017-11-04T07:55:42.636Z,310
2017-11-04T07:56:08.755Z,310
2017-11-04T07:56:34.879Z,310
2017-11-04T07:57:00.995Z,315
2017-11-04T07:57:27.115Z,315
2017-11-04T07:57:53.258Z,315
2017-11-04T07:58:19.374Z,320
2017-11-04T07:58:45.494Z,315
2017-11-04T07:59:11.620Z,310
2017-11-04T07:59:37.733Z,295
2017-11-04T08:00:03.856Z,290
2017-11-04T08:00:29.972Z,290
2017-11-04T08:00:56.094Z,290
2017-11-04T08:01:22.235Z,285
2017-11-04T08:01:48.362Z,285
2017-11-04T08:02:14.486Z,275
2017-11-04T08:02:40.601Z,270
2017-11-04T08:03:06.725Z,250
2017-11-04T08:03:32.839Z,240
2017-11-04T08:03:58.982Z,235
2017-11-04T08:04:25.074Z,220
2017-11-04T08:04:51.202Z,220
2017-11-04T08:05:17.328Z,210
2017-11-04T08:05:43.481Z,195
2017-11-04T08:06:09.599Z,195
2017-11-04T08:06:35.718Z,190
2017-11-04T08:07:01.838Z,185
2017-11-04T08:07:27.956Z,180
2017-11-04T08:07:54.071Z,180
2017-11-04T08:08:20.201Z,180
2017-11-04T08:08:46.319Z,175
2017-11-04T08:09:12.438Z,175
2017-11-04T08:09:38.562Z,175
2017-11-04T08:10:04.681Z,175
2017-11-04T08:10:30.797Z,180
2017-11-04T08:10:56.920Z,180
2017-11-04T08:11:23.035Z,185
2017-11-04T08:11:49.163Z,185
2017-11-04T08:13:29.232Z,205
2017-11-04T08:13:55.353Z,205
2017-11-04T08:14:21.473Z,205
2017-11-04T08:14:47.606Z,205
2017-11-04T08:15:13.734Z,210
2017-11-04T08:15:39.859Z,215
2017-11-04T08:16:05.981Z,215
2017-11-04T08:16:32.096Z,215
2017-11-04T08:16:58.230Z,220
2017-11-04T08:17:24.353Z,225
2017-11-04T08:17:50.492Z,225
2017-11-04T08:18:16.625Z,230
2017-11-04T08:18:42.752Z,235
2017-11-04T08:19:08.880Z,235
2017-11-04T08:19:34.988Z,235
2017-11-04T08:20:01.119Z,240
2017-11-04T08:20:27.237Z,240
2017-11-04T08:20:53.367Z,250
2017-11-04T08:21:19.497Z,240
2017-11-04T08:21:45.608Z,240
2017-11-04T08:22:11.728Z,235
2017-11-04T08:22:37.865Z,230
2017-11-04T08:23:03.991Z,225
2017-11-04T08:23:30.111Z,215
2017-11-04T08:23:56.235Z,210
2017-11-04T08:24:22.361Z,210
2017-11-04T08:24:48.480Z,205
2017-11-04T08:25:14.599Z,200
2017-11-04T08:25:40.724Z,195
2017-11-04T08:26:06.844Z,190
2017-11-04T08:26:32.971Z,185
2017-11-04T08:26:59.101Z,185
2017-11-04T08:27:25.232Z,185
2017-11-04T08:27:51.358Z,185
2017-11-04T08:28:17.477Z,185
2017-11-04T08:28:43.598Z,185
2017-11-04T08:29:09.722Z,185
2017-11-04T08:29:35.841Z,185
2017-11-04T08:30:01.964Z,180
2017-11-04T08:30:28.091Z,180
2017-11-04T08:30:54.207Z,180
2017-11-04T08:31:20.332Z,175
2017-11-04T08:31:46.461Z,170
2017-11-04T08:32:12.578Z,165
2017-11-04T08:32:38.695Z,165
2017-11-04T08:33:04.821Z,160
2017-11-04T08:33:30.943Z,155
2017-11-04T08:33:57.059Z,155
2017-11-04T08:34:23.188Z,150
2017-11-04T08:34:49.304Z,140
2017-11-04T08:35:15.431Z,135
2017-11-04T08:35:41.549Z,130
2017-11-04T08:36:07.671Z,125
2017-11-04T08:36:33.790Z,120
2017-11-04T08:36:59.912Z,115
2017-11-04T08:37:26.035Z,115
2017-11-04T08:37:52.158Z,105
2017-11-04T08:38:18.288Z,105